createdAt,value
2019-05-29T00:02:20.493Z,13.58
2019-05-29T00:04:48.328Z,13.63
2019-05-29T00:07:16.830Z,13.59
2019-05-29T00:09:44.673Z,13.59
2019-05-29T00:12:18.427Z,13.58
2019-05-29T00:14:42.138Z,13.60
2019-05-29T00:17:10.423Z,13.48
2019-05-29T00:19:38.297Z,13.48
2019-05-29T00:22:06.242Z,13.34
2019-05-29T00:24:34.040Z,13.33
2019-05-29T00:27:01.827Z,13.42
2019-05-29T00:29:29.657Z,13.42
2019-05-29T00:31:57.353Z,13.39
2019-05-29T00:34:28.599Z,13.39
2019-05-29T00:36:56.410Z,13.36
2019-05-29T00:39:24.214Z,13.31
2019-05-29T00:41:51.935Z,13.36
2019-05-29T00:44:33.547Z,13.13
2019-05-29T00:46:49.266Z,13.13
2019-05-29T00:49:18.061Z,13.19
2019-05-29T00:51:45.982Z,13.23
2019-05-29T00:54:14.470Z,13.12
2019-05-29T00:56:42.344Z,13.17
2019-05-29T00:59:11.076Z,13.17
2019-05-29T01:01:38.920Z,13.22
2019-05-29T01:04:07.582Z,13.24
2019-05-29T01:06:35.284Z,13.24
2019-05-29T01:09:03.995Z,13.22
2019-05-29T01:11:32.501Z,13.22
2019-05-29T01:14:00.284Z,13.25
2019-05-29T01:16:27.987Z,13.19
2019-05-29T01:18:57.901Z,13.20
2019-05-29T01:21:25.839Z,13.23
2019-05-29T01:23:54.656Z,13.20
2019-05-29T01:26:22.833Z,13.19
2019-05-29T01:28:50.677Z,13.22
2019-05-29T01:31:19.377Z,13.18
2019-05-29T01:33:47.202Z,13.20
2019-05-29T01:36:27.084Z,13.20
2019-05-29T01:38:54.825Z,13.21
2019-05-29T01:41:23.546Z,13.21
2019-05-29T01:43:51.366Z,13.21
2019-05-29T01:46:19.508Z,13.06
2019-05-29T01:48:47.337Z,13.06
2019-05-29T01:51:15.423Z,13.11
2019-05-29T01:53:43.590Z,13.02
2019-05-29T01:56:11.368Z,13.02
2019-05-29T01:58:39.361Z,13.01
2019-05-29T02:01:07.199Z,13.09
2019-05-29T02:03:34.903Z,13.09
2019-05-29T02:06:02.631Z,13.07
2019-05-29T02:08:30.341Z,13.02
2019-05-29T02:10:58.101Z,13.02
2019-05-29T02:13:26.000Z,13.09
2019-05-29T02:15:53.744Z,13.04
2019-05-29T02:18:21.445Z,13.02
2019-05-29T02:20:49.351Z,12.98
2019-05-29T02:23:17.779Z,12.98
2019-05-29T02:25:46.642Z,12.98
2019-05-29T02:28:14.835Z,12.82
2019-05-29T02:30:42.622Z,12.83
2019-05-29T02:33:10.429Z,12.83
2019-05-29T02:35:38.280Z,12.82
2019-05-29T02:38:06.214Z,12.76
2019-05-29T02:40:33.994Z,12.60
2019-05-29T02:43:01.722Z,12.60
2019-05-29T02:45:52.083Z,12.67
2019-05-29T02:47:59.345Z,12.65
2019-05-29T02:50:28.817Z,12.63
2019-05-29T02:52:56.768Z,12.63
2019-05-29T02:55:24.631Z,12.70
2019-05-29T02:57:52.550Z,12.45
2019-05-29T03:00:25.733Z,12.45
2019-05-29T03:02:54.039Z,12.42
2019-05-29T03:05:22.028Z,12.41
2019-05-29T03:07:49.997Z,12.41
2019-05-29T03:10:18.605Z,12.43
2019-05-29T03:12:46.453Z,12.49
2019-05-29T03:15:14.315Z,12.38
2019-05-29T03:17:42.052Z,12.38
2019-05-29T03:20:09.804Z,12.47
2019-05-29T03:22:37.572Z,12.53
2019-05-29T03:25:06.380Z,12.53
2019-05-29T03:27:34.123Z,12.53
2019-05-29T03:30:01.929Z,12.54
2019-05-29T03:32:32.426Z,12.64
2019-05-29T03:34:59.291Z,12.64
2019-05-29T03:37:28.219Z,12.68
2019-05-29T03:39:56.058Z,12.66
2019-05-29T03:42:24.325Z,12.65
2019-05-29T03:44:52.016Z,12.68
2019-05-29T03:47:19.799Z,12.66
2019-05-29T03:49:47.513Z,12.66
2019-05-29T03:52:15.239Z,12.45
2019-05-29T03:54:42.925Z,12.45
2019-05-29T03:57:10.662Z,12.38
2019-05-29T03:59:38.466Z,12.38
2019-05-29T04:02:06.196Z,12.40
2019-05-29T04:04:35.701Z,12.28
2019-05-29T04:07:23.624Z,12.28
2019-05-29T04:09:51.393Z,12.35
2019-05-29T04:12:19.496Z,12.31
2019-05-29T04:14:48.000Z,12.31
2019-05-29T04:17:18.638Z,12.31
2019-05-29T04:19:47.045Z,11.92
2019-05-29T04:22:18.401Z,11.92
2019-05-29T04:24:47.396Z,11.91
2019-05-29T04:27:18.817Z,11.82
2019-05-29T04:29:47.537Z,11.83
2019-05-29T04:32:16.133Z,11.71
2019-05-29T04:34:43.905Z,11.71
2019-05-29T04:37:11.607Z,11.76
2019-05-29T04:39:39.358Z,11.72
2019-05-29T04:42:07.161Z,11.83
2019-05-29T04:44:36.246Z,11.83
2019-05-29T04:47:11.099Z,11.89
2019-05-29T04:49:36.158Z,12.03
2019-05-29T04:52:04.286Z,12.03
2019-05-29T04:54:33.368Z,12.14
2019-05-29T04:57:01.147Z,12.16
2019-05-29T04:59:28.907Z,12.16
2019-05-29T05:01:56.591Z,12.08
2019-05-29T05:04:24.332Z,12.12
2019-05-29T05:06:52.199Z,12.02
2019-05-29T05:09:19.939Z,12.12
2019-05-29T05:11:47.882Z,12.12
2019-05-29T05:14:15.811Z,12.03
2019-05-29T05:16:44.681Z,12.03
2019-05-29T05:19:12.505Z,12.08
2019-05-29T05:21:40.360Z,12.10
2019-05-29T05:24:08.160Z,12.04
2019-05-29T05:26:36.306Z,11.90
2019-05-29T05:29:04.393Z,11.90
2019-05-29T05:31:32.401Z,11.94
2019-05-29T05:34:00.356Z,12.04
2019-05-29T05:36:28.086Z,11.99
2019-05-29T05:38:55.817Z,11.99
2019-05-29T05:41:23.652Z,11.98
2019-05-29T05:43:51.380Z,12.01
2019-05-29T05:46:19.075Z,12.08
2019-05-29T05:48:49.143Z,12.20
2019-05-29T05:51:16.944Z,12.13
2019-05-29T05:53:44.666Z,12.06
2019-05-29T05:56:12.454Z,12.04
2019-05-29T05:58:40.310Z,12.13
2019-05-29T06:01:08.053Z,12.21
2019-05-29T06:03:36.263Z,12.21
2019-05-29T06:06:05.291Z,12.14
2019-05-29T06:08:34.047Z,12.27
2019-05-29T06:11:02.081Z,12.27
2019-05-29T06:13:29.987Z,12.29
2019-05-29T06:15:57.857Z,12.28
2019-05-29T06:18:26.067Z,12.29
2019-05-29T06:20:53.816Z,12.28
2019-05-29T06:23:21.631Z,12.36
2019-05-29T06:25:50.486Z,12.35
2019-05-29T06:28:18.245Z,12.25
2019-05-29T06:30:46.018Z,12.52
2019-05-29T06:33:13.716Z,12.52
2019-05-29T06:35:41.745Z,12.55
2019-05-29T06:38:10.838Z,12.63
2019-05-29T06:40:40.327Z,12.66
2019-05-29T06:43:19.629Z,12.84
2019-05-29T06:45:47.571Z,12.84
2019-05-29T06:48:40.517Z,12.88
2019-05-29T06:50:57.130Z,13.07
2019-05-29T06:53:22.995Z,13.07
2019-05-29T06:55:54.232Z,12.96
2019-05-29T06:58:20.737Z,12.96
2019-05-29T07:00:48.562Z,13.00
2019-05-29T07:03:16.469Z,13.06
2019-05-29T07:05:50.613Z,13.23
2019-05-29T07:08:20.912Z,13.39
2019-05-29T07:10:44.604Z,13.31
2019-05-29T07:13:12.401Z,13.39
2019-05-29T07:15:40.775Z,13.35
2019-05-29T07:18:08.564Z,13.43
2019-05-29T07:20:36.561Z,13.57
2019-05-29T07:23:04.601Z,13.74
2019-05-29T07:25:32.457Z,13.74
2019-05-29T07:28:00.276Z,13.74
2019-05-29T07:30:30.163Z,14.05
2019-05-29T07:32:59.246Z,14.16
2019-05-29T07:35:27.046Z,14.16
2019-05-29T07:37:54.896Z,14.23
2019-05-29T07:40:22.730Z,14.24
2019-05-29T07:42:56.093Z,14.24
2019-05-29T07:45:20.383Z,14.34
2019-05-29T07:47:48.568Z,14.34
2019-05-29T07:52:25.187Z,14.66
2019-05-29T07:54:53.586Z,14.68
2019-05-29T07:57:21.449Z,14.63
2019-05-29T07:59:49.149Z,14.63
2019-05-29T08:02:17.020Z,14.76
2019-05-29T08:04:45.159Z,14.83
2019-05-29T08:07:13.203Z,14.71
2019-05-29T08:09:41.372Z,14.68
2019-05-29T08:12:09.259Z,14.52
2019-05-29T08:14:37.578Z,14.44
2019-05-29T08:17:05.615Z,14.75
2019-05-29T08:19:33.398Z,14.75
2019-05-29T08:22:01.253Z,14.93
2019-05-29T08:24:35.594Z,15.15
2019-05-29T08:27:03.507Z,15.21
2019-05-29T08:29:31.197Z,15.32
2019-05-29T08:31:59.001Z,15.42
2019-05-29T08:34:26.667Z,15.42
2019-05-29T08:37:04.841Z,15.43
2019-05-29T08:39:35.448Z,15.83
2019-05-29T08:42:21.010Z,15.68
2019-05-29T08:44:25.657Z,15.60
2019-05-29T08:47:08.526Z,15.69
2019-05-29T08:49:23.008Z,15.78
2019-05-29T08:51:52.295Z,15.97
2019-05-29T08:54:24.050Z,15.91
2019-05-29T08:56:50.398Z,16.02
2019-05-29T08:59:18.197Z,16.24
2019-05-29T09:01:47.677Z,16.16
2019-05-29T09:04:15.669Z,16.07
2019-05-29T09:06:44.662Z,16.25
2019-05-29T09:09:12.516Z,16.38
2019-05-29T09:11:40.360Z,16.53
2019-05-29T09:14:08.177Z,16.90
2019-05-29T09:16:35.936Z,17.30
2019-05-29T09:19:04.098Z,16.88
2019-05-29T09:21:31.876Z,16.75
2019-05-29T09:23:59.642Z,17.02
2019-05-29T09:26:27.651Z,16.96
2019-05-29T09:28:55.396Z,16.98
2019-05-29T09:31:23.937Z,17.34
2019-05-29T09:33:51.856Z,17.54
2019-05-29T09:36:20.681Z,17.51
2019-05-29T09:38:48.864Z,17.68
2019-05-29T09:41:17.389Z,18.06
2019-05-29T09:43:58.388Z,17.98
2019-05-29T09:46:15.161Z,18.00
2019-05-29T09:48:49.743Z,17.79
2019-05-29T09:51:21.226Z,18.04
2019-05-29T09:53:43.834Z,18.06
2019-05-29T09:56:11.687Z,17.79
2019-05-29T09:58:39.433Z,18.00
2019-05-29T10:01:22.359Z,18.11
2019-05-29T10:03:38.136Z,18.58
2019-05-29T10:06:09.204Z,18.77
2019-05-29T10:08:35.729Z,18.78
2019-05-29T10:11:08.431Z,18.34
2019-05-29T10:13:33.349Z,18.64
2019-05-29T10:16:02.746Z,18.48
2019-05-29T10:18:32.659Z,18.15
2019-05-29T10:21:01.265Z,17.90
2019-05-29T10:23:29.296Z,18.13
2019-05-29T10:25:58.840Z,18.20
2019-05-29T10:28:27.326Z,18.18
2019-05-29T10:30:55.002Z,18.24
2019-05-29T10:33:22.790Z,18.20
2019-05-29T10:35:53.300Z,17.95
2019-05-29T10:38:20.321Z,18.12
2019-05-29T10:41:02.377Z,17.97
2019-05-29T10:43:33.168Z,18.27
2019-05-29T10:45:49.756Z,18.05
2019-05-29T10:48:17.720Z,17.95
2019-05-29T10:50:49.188Z,17.98
2019-05-29T10:53:15.472Z,18.27
2019-05-29T10:55:44.431Z,18.26
2019-05-29T10:58:12.425Z,18.07
2019-05-29T11:00:40.132Z,18.14
2019-05-29T11:03:08.440Z,18.14
2019-05-29T11:05:37.309Z,18.23
2019-05-29T11:08:05.156Z,18.21
2019-05-29T11:10:32.878Z,18.05
2019-05-29T11:13:00.625Z,18.26
2019-05-29T11:15:28.620Z,18.39
2019-05-29T11:17:57.413Z,18.25
2019-05-29T11:20:25.983Z,18.34
2019-05-29T11:22:53.814Z,18.67
2019-05-29T11:25:27.198Z,18.47
2019-05-29T11:27:53.041Z,18.34
2019-05-29T11:30:21.179Z,18.06
2019-05-29T11:32:51.039Z,18.10
2019-05-29T11:35:19.436Z,18.22
2019-05-29T11:37:50.449Z,18.35
2019-05-29T11:40:19.341Z,18.11
2019-05-29T11:42:47.243Z,18.15
2019-05-29T11:45:15.444Z,18.30
2019-05-29T11:47:43.311Z,18.46
2019-05-29T11:50:19.031Z,18.73
2019-05-29T11:52:43.285Z,18.54
2019-05-29T11:55:11.761Z,18.46
2019-05-29T11:57:40.055Z,18.37
2019-05-29T12:00:19.062Z,18.34
2019-05-29T12:02:38.924Z,18.07
2019-05-29T12:05:08.278Z,18.48
2019-05-29T12:07:36.029Z,18.98
2019-05-29T12:10:07.267Z,18.64
2019-05-29T12:12:35.500Z,18.66
2019-05-29T12:15:11.083Z,18.79
2019-05-29T12:17:33.966Z,18.58
2019-05-29T12:20:04.021Z,19.02
2019-05-29T12:22:31.594Z,19.32
2019-05-29T12:25:00.658Z,19.83
2019-05-29T12:27:28.761Z,19.65
2019-05-29T12:29:56.708Z,19.92
2019-05-29T12:32:25.198Z,20.28
2019-05-29T12:34:55.298Z,19.93
2019-05-29T12:37:22.499Z,19.15
2019-05-29T12:39:50.241Z,18.97
2019-05-29T12:42:18.033Z,19.26
2019-05-29T12:44:45.871Z,19.93
2019-05-29T12:47:13.543Z,19.78
2019-05-29T12:49:41.270Z,19.69
2019-05-29T12:52:10.320Z,19.31
2019-05-29T12:54:38.314Z,19.52
2019-05-29T12:57:06.084Z,19.54
2019-05-29T12:59:33.946Z,19.54
2019-05-29T13:02:02.670Z,20.10
2019-05-29T13:04:30.667Z,20.35
2019-05-29T13:06:58.683Z,19.87
2019-05-29T13:09:27.112Z,19.81
2019-05-29T13:12:05.691Z,19.97
2019-05-29T13:14:33.933Z,19.69
2019-05-29T13:17:02.926Z,19.39
2019-05-29T13:19:30.881Z,19.41
2019-05-29T13:21:59.335Z,19.52
2019-05-29T13:24:27.093Z,19.53
2019-05-29T13:26:55.469Z,19.25
2019-05-29T13:29:23.368Z,19.13
2019-05-29T13:31:55.386Z,19.29
2019-05-29T13:34:20.722Z,19.57
2019-05-29T13:36:48.515Z,20.05
2019-05-29T13:39:16.336Z,20.24
2019-05-29T13:41:44.087Z,20.73
2019-05-29T13:44:11.830Z,20.94
2019-05-29T13:46:39.517Z,20.75
2019-05-29T13:49:07.369Z,20.40
2019-05-29T13:51:35.131Z,20.45
2019-05-29T13:54:11.111Z,20.00
2019-05-29T13:56:32.773Z,19.62
2019-05-29T13:59:01.936Z,19.82
2019-05-29T14:01:30.221Z,20.25
2019-05-29T14:03:58.219Z,20.87
2019-05-29T14:06:25.998Z,21.29
2019-05-29T14:08:54.080Z,21.57
2019-05-29T14:11:22.091Z,21.39
2019-05-29T14:13:49.783Z,20.93
2019-05-29T14:16:17.613Z,20.34
2019-05-29T14:18:45.524Z,19.82
2019-05-29T14:21:13.683Z,19.50
2019-05-29T14:23:41.532Z,19.59
2019-05-29T14:26:09.851Z,20.04
2019-05-29T14:28:37.570Z,20.75
2019-05-29T14:31:05.994Z,21.00
2019-05-29T14:33:33.870Z,20.69
2019-05-29T14:36:01.613Z,20.34
2019-05-29T14:38:29.341Z,20.23
2019-05-29T14:40:57.081Z,19.86
2019-05-29T14:43:24.769Z,19.67
2019-05-29T14:45:52.509Z,19.31
2019-05-29T14:48:20.236Z,19.32
2019-05-29T14:50:48.802Z,19.18
2019-05-29T14:53:16.556Z,19.54
2019-05-29T14:55:44.452Z,19.82
2019-05-29T14:58:12.265Z,20.33
2019-05-29T15:00:40.124Z,20.30
2019-05-29T15:03:09.273Z,20.03
2019-05-29T15:05:37.214Z,19.50
2019-05-29T15:08:05.808Z,19.25
2019-05-29T15:10:33.865Z,19.43
2019-05-29T15:13:01.563Z,19.30
2019-05-29T15:15:30.349Z,19.33
2019-05-29T15:17:58.026Z,19.41
2019-05-29T15:20:26.060Z,19.40
2019-05-29T15:22:53.783Z,19.33
2019-05-29T15:25:24.362Z,19.19
2019-05-29T15:27:51.699Z,19.33
2019-05-29T15:30:22.997Z,19.48
2019-05-29T15:32:49.813Z,19.22
2019-05-29T15:35:19.977Z,19.10
2019-05-29T15:37:48.308Z,19.09
2019-05-29T15:40:17.149Z,19.15
2019-05-29T15:42:45.448Z,19.07
2019-05-29T15:45:14.042Z,18.92
2019-05-29T15:47:42.050Z,19.29
2019-05-29T15:50:11.562Z,19.29
2019-05-29T15:52:39.829Z,19.24
2019-05-29T15:55:21.314Z,19.18
2019-05-29T15:57:37.981Z,19.12
2019-05-29T16:00:07.073Z,19.24
2019-05-29T16:02:34.895Z,19.38
2019-05-29T16:05:03.233Z,19.12
2019-05-29T16:07:30.959Z,18.93
2019-05-29T16:09:58.888Z,18.66
2019-05-29T16:12:30.684Z,18.43
2019-05-29T16:14:56.295Z,18.13
2019-05-29T16:17:24.117Z,18.23
2019-05-29T16:19:51.851Z,18.11
2019-05-29T16:22:20.133Z,18.22
2019-05-29T16:24:47.807Z,18.33
2019-05-29T16:27:16.104Z,18.27
2019-05-29T16:29:43.882Z,18.10
2019-05-29T16:32:11.670Z,17.99
2019-05-29T16:34:39.446Z,17.92
2019-05-29T16:37:07.200Z,18.10
2019-05-29T16:39:35.177Z,18.23
2019-05-29T16:42:03.258Z,17.87
2019-05-29T16:44:30.940Z,18.00
2019-05-29T16:46:59.218Z,18.27
2019-05-29T16:49:29.389Z,18.38
2019-05-29T16:51:57.306Z,18.41
2019-05-29T16:54:25.161Z,18.60
2019-05-29T16:56:52.978Z,18.76
2019-05-29T16:59:21.418Z,18.82
2019-05-29T17:01:50.349Z,18.70
2019-05-29T17:04:19.635Z,18.45
2019-05-29T17:06:47.487Z,18.43
2019-05-29T17:09:16.322Z,18.55
2019-05-29T17:11:44.178Z,18.49
2019-05-29T17:14:11.904Z,18.22
2019-05-29T17:16:39.634Z,18.27
2019-05-29T17:19:08.161Z,17.75
2019-05-29T17:21:35.910Z,18.00
2019-05-29T17:24:03.843Z,17.88
2019-05-29T17:26:31.631Z,17.64
2019-05-29T17:28:59.452Z,17.52
2019-05-29T17:31:27.639Z,17.68
2019-05-29T17:33:55.703Z,17.54
2019-05-29T17:36:28.185Z,17.71
2019-05-29T17:38:53.734Z,17.55
2019-05-29T17:41:21.532Z,17.59
2019-05-29T17:43:49.999Z,17.73
2019-05-29T17:46:19.508Z,17.50
2019-05-29T17:48:47.478Z,17.39
2019-05-29T17:51:17.600Z,17.54
2019-05-29T17:53:47.029Z,17.44
2019-05-29T17:56:26.370Z,17.56
2019-05-29T17:58:44.806Z,17.30
2019-05-29T18:01:12.711Z,17.44
2019-05-29T18:03:40.570Z,17.17
2019-05-29T18:06:08.355Z,17.31
2019-05-29T18:08:36.504Z,17.42
2019-05-29T18:11:04.431Z,17.41
2019-05-29T18:13:32.431Z,17.41
2019-05-29T18:16:00.345Z,17.37
2019-05-29T18:18:28.092Z,17.40
2019-05-29T18:20:58.254Z,17.32
2019-05-29T18:23:26.561Z,17.33
2019-05-29T18:25:54.260Z,17.23
2019-05-29T18:28:22.130Z,17.06
2019-05-29T18:30:50.023Z,17.20
2019-05-29T18:33:18.639Z,17.21
2019-05-29T18:35:46.461Z,17.25
2019-05-29T18:38:14.506Z,17.22
2019-05-29T18:40:42.433Z,17.25
2019-05-29T18:43:10.311Z,17.22
2019-05-29T18:45:38.126Z,17.20
2019-05-29T18:48:06.095Z,17.23
2019-05-29T18:50:33.912Z,17.21
2019-05-29T18:53:01.761Z,17.20
2019-05-29T18:55:29.697Z,17.17
2019-05-29T18:57:57.600Z,17.07
2019-05-29T19:00:25.461Z,17.06
2019-05-29T19:02:53.324Z,17.03
2019-05-29T19:05:21.546Z,17.03
2019-05-29T19:07:49.339Z,17.10
2019-05-29T19:10:17.313Z,17.11
2019-05-29T19:12:45.101Z,17.13
2019-05-29T19:15:13.331Z,17.13
2019-05-29T19:17:41.128Z,17.03
2019-05-29T19:20:09.297Z,16.91
2019-05-29T19:22:37.022Z,16.82
2019-05-29T19:25:07.590Z,16.75
2019-05-29T19:27:41.351Z,16.66
2019-05-29T19:30:05.974Z,16.57
2019-05-29T19:32:35.784Z,16.50
2019-05-29T19:35:04.495Z,16.43
2019-05-29T19:37:32.234Z,16.35
2019-05-29T19:39:59.958Z,16.31
2019-05-29T19:42:28.143Z,16.24
2019-05-29T19:44:56.174Z,16.20
2019-05-29T19:47:24.630Z,16.13
2019-05-29T19:49:52.641Z,16.07
2019-05-29T19:52:20.557Z,15.99
2019-05-29T19:54:48.374Z,15.94
2019-05-29T19:57:16.945Z,15.89
2019-05-29T19:59:44.701Z,15.75
2019-05-29T20:02:12.597Z,15.75
2019-05-29T20:04:40.463Z,15.68
2019-05-29T20:07:08.281Z,15.61
2019-05-29T20:09:37.476Z,15.57
2019-05-29T20:12:05.564Z,15.50
2019-05-29T20:14:33.791Z,15.47
2019-05-29T20:17:01.738Z,15.40
2019-05-29T20:19:34.176Z,15.34
2019-05-29T20:21:59.442Z,15.31
2019-05-29T20:24:28.645Z,15.25
2019-05-29T20:26:56.703Z,15.20
2019-05-29T20:29:24.620Z,15.15
2019-05-29T20:31:52.474Z,15.11
2019-05-29T20:34:20.144Z,15.06
2019-05-29T20:36:48.580Z,15.00
2019-05-29T20:39:16.262Z,14.97
2019-05-29T20:41:43.966Z,14.93
2019-05-29T20:44:11.746Z,14.89
2019-05-29T20:46:39.600Z,14.84
2019-05-29T20:49:07.391Z,14.83
2019-05-29T20:51:36.171Z,15.07
2019-05-29T20:54:04.352Z,15.07
2019-05-29T20:56:32.143Z,14.99
2019-05-29T20:59:09.077Z,14.89
2019-05-29T21:01:43.030Z,14.79
2019-05-29T21:04:06.732Z,14.71
2019-05-29T21:06:34.641Z,14.49
2019-05-29T21:09:02.484Z,14.49
2019-05-29T21:11:30.240Z,14.43
2019-05-29T21:13:58.318Z,14.37
2019-05-29T21:16:26.087Z,14.29
2019-05-29T21:18:53.782Z,14.23
2019-05-29T21:21:21.578Z,14.18
2019-05-29T21:23:49.680Z,14.14
2019-05-29T21:26:18.386Z,14.11
2019-05-29T21:28:50.437Z,14.06
2019-05-29T21:31:15.901Z,14.03
2019-05-29T21:33:47.346Z,13.96
2019-05-29T21:36:14.632Z,13.78
2019-05-29T21:38:42.376Z,13.78
2019-05-29T21:41:10.221Z,13.78
2019-05-29T21:43:38.627Z,13.72
2019-05-29T21:46:06.491Z,13.72
2019-05-29T21:48:34.614Z,13.69
2019-05-29T21:51:02.395Z,13.67
2019-05-29T21:53:30.208Z,13.65
2019-05-29T21:55:58.468Z,13.64
2019-05-29T21:58:26.273Z,13.62
2019-05-29T22:00:54.871Z,13.58
2019-05-29T22:03:22.763Z,13.47
2019-05-29T22:05:50.568Z,13.47
2019-05-29T22:08:18.513Z,13.43
2019-05-29T22:10:46.204Z,13.44
2019-05-29T22:13:14.079Z,13.44
2019-05-29T22:15:42.015Z,13.40
2019-05-29T22:18:09.823Z,13.37
2019-05-29T22:20:37.734Z,13.33
2019-05-29T22:23:05.647Z,13.30
2019-05-29T22:25:34.546Z,13.19
2019-05-29T22:28:03.104Z,13.21
2019-05-29T22:30:31.020Z,13.13
2019-05-29T22:32:59.589Z,13.13
2019-05-29T22:35:27.638Z,13.10
2019-05-29T22:37:55.762Z,13.06
2019-05-29T22:40:23.583Z,13.06
2019-05-29T22:42:51.437Z,12.98
2019-05-29T22:45:19.456Z,12.95
2019-05-29T22:47:47.217Z,12.95
2019-05-29T22:50:15.029Z,12.89
2019-05-29T22:52:42.801Z,12.88
2019-05-29T22:55:10.905Z,12.84
2019-05-29T22:57:38.847Z,12.84
2019-05-29T23:00:07.658Z,12.76
2019-05-29T23:02:35.499Z,12.72
2019-05-29T23:05:03.990Z,12.66
2019-05-29T23:07:31.782Z,12.66
2019-05-29T23:10:00.629Z,12.67
2019-05-29T23:12:28.560Z,12.62
2019-05-29T23:14:56.395Z,12.60
2019-05-29T23:17:24.107Z,12.54
2019-05-29T23:19:52.444Z,12.51
2019-05-29T23:22:24.217Z,12.46
2019-05-29T23:24:50.265Z,12.39
2019-05-29T23:27:18.868Z,12.39
2019-05-29T23:29:49.231Z,12.40
2019-05-29T23:32:16.239Z,12.34
2019-05-29T23:34:55.556Z,12.32
2019-05-29T23:37:23.377Z,12.29
2019-05-29T23:39:53.003Z,12.26
2019-05-29T23:42:21.081Z,12.21
2019-05-29T23:44:51.977Z,12.18
2019-05-29T23:47:18.536Z,12.16
2019-05-29T23:49:46.303Z,12.09
2019-05-29T23:52:14.328Z,12.06
2019-05-29T23:54:42.615Z,12.00
2019-05-29T23:57:10.409Z,11.98
2019-05-29T23:59:38.591Z,11.98
